createdAt,value
2017-04-22T00:00:31.784Z,0
2017-04-22T00:01:42.112Z,0
2017-04-22T00:02:52.437Z,0
2017-04-22T00:04:02.789Z,0
2017-04-22T00:05:13.127Z,0
2017-04-22T00:06:23.153Z,0
2017-04-22T00:07:33.180Z,0
2017-04-22T00:08:43.547Z,0
2017-04-22T00:09:53.876Z,0
2017-04-22T00:11:03.898Z,0
2017-04-22T00:12:14.238Z,0
2017-04-22T00:13:24.607Z,0
2017-04-22T00:14:34.936Z,0
2017-04-22T00:15:44.953Z,0
2017-04-22T00:16:54.962Z,0
2017-04-22T00:18:04.685Z,0
2017-04-22T00:19:15.041Z,0
2017-04-22T00:20:25.386Z,0
2017-04-22T00:21:35.434Z,0
2017-04-22T00:22:45.777Z,0
2017-04-22T00:23:55.791Z,0
2017-04-22T00:25:06.138Z,0
2017-04-22T00:26:15.552Z,0
2017-04-22T00:27:25.599Z,0
2017-04-22T00:28:36.036Z,0
2017-04-22T00:29:46.376Z,0
2017-04-22T00:30:56.708Z,0
2017-04-22T00:32:07.044Z,0
2017-04-22T00:33:17.449Z,0
2017-04-22T00:34:27.478Z,0
2017-04-22T00:35:38.278Z,0
2017-04-22T00:36:48.632Z,0
2017-04-22T00:37:59.126Z,0
2017-04-22T00:39:09.514Z,0
2017-04-22T00:40:19.882Z,0
2017-04-22T00:41:30.228Z,0
2017-04-22T00:42:39.928Z,0
2017-04-22T00:43:50.259Z,0
2017-04-22T00:45:00.606Z,0
2017-04-22T00:46:10.615Z,0
2017-04-22T00:47:20.631Z,0
2017-04-22T00:48:30.645Z,0
2017-04-22T00:49:40.985Z,0
2017-04-22T00:50:51.348Z,0
2017-04-22T00:52:01.687Z,0
2017-04-22T00:53:12.038Z,0
2017-04-22T00:54:22.374Z,0
2017-04-22T00:55:32.767Z,0
2017-04-22T00:56:43.102Z,0
2017-04-22T00:57:53.440Z,0
2017-04-22T00:59:03.455Z,0
2017-04-22T01:00:13.485Z,0
2017-04-22T01:01:23.828Z,0
2017-04-22T01:02:33.879Z,0
2017-04-22T01:03:43.601Z,0
2017-04-22T01:04:53.938Z,0
2017-04-22T01:06:04.271Z,0
2017-04-22T01:07:14.009Z,0
2017-04-22T01:08:24.343Z,0
2017-04-22T01:09:34.363Z,0
2017-04-22T01:10:44.683Z,0
2017-04-22T01:11:55.230Z,0
2017-04-22T01:13:05.560Z,0
2017-04-22T01:14:16.042Z,0
2017-04-22T01:15:26.282Z,0
2017-04-22T01:16:36.622Z,0
2017-04-22T01:17:47.022Z,0
2017-04-22T01:18:57.348Z,0
2017-04-22T01:20:07.054Z,0
2017-04-22T01:21:17.382Z,0
2017-04-22T01:22:27.719Z,0
2017-04-22T01:23:38.065Z,0
2017-04-22T01:24:48.392Z,0
2017-04-22T01:25:58.407Z,0
2017-04-22T01:27:08.755Z,0
2017-04-22T01:28:18.449Z,0
2017-04-22T01:29:28.781Z,0
2017-04-22T01:30:39.120Z,0
2017-04-22T01:31:49.141Z,0
2017-04-22T01:32:59.498Z,0
2017-04-22T01:34:09.507Z,0
2017-04-22T01:35:19.529Z,0
2017-04-22T01:36:29.235Z,0
2017-04-22T01:37:39.566Z,0
2017-04-22T01:38:49.909Z,0
2017-04-22T01:39:59.631Z,0
2017-04-22T01:41:09.973Z,0
2017-04-22T01:42:20.308Z,0
2017-04-22T01:43:30.641Z,0
2017-04-22T01:44:40.974Z,0
2017-04-22T01:45:51.300Z,0
2017-04-22T01:47:01.018Z,0
2017-04-22T01:48:11.356Z,0
2017-04-22T01:49:21.708Z,0
2017-04-22T01:50:32.044Z,0
2017-04-22T01:51:42.406Z,0
2017-04-22T01:52:52.753Z,0
2017-04-22T01:54:03.125Z,0
2017-04-22T01:55:13.160Z,0
2017-04-22T01:56:23.492Z,0
2017-04-22T01:57:33.856Z,0
2017-04-22T01:58:44.212Z,0
2017-04-22T01:59:54.225Z,0
2017-04-22T02:01:04.561Z,0
2017-04-22T02:02:14.572Z,0
2017-04-22T02:03:24.613Z,0
2017-04-22T02:04:34.945Z,0
2017-04-22T02:05:45.289Z,0
2017-04-22T02:06:55.307Z,0
2017-04-22T02:08:05.659Z,0
2017-04-22T02:09:15.999Z,0
2017-04-22T02:10:26.345Z,0
2017-04-22T02:11:36.677Z,0
2017-04-22T02:12:46.702Z,0
2017-04-22T02:13:56.773Z,0
2017-04-22T02:15:06.810Z,0
2017-04-22T02:16:17.142Z,0
2017-04-22T02:17:27.213Z,0
2017-04-22T02:18:36.918Z,0
2017-04-22T02:19:46.647Z,0
2017-04-22T02:20:56.665Z,0
2017-04-22T02:22:06.689Z,0
2017-04-22T02:23:17.013Z,0
2017-04-22T02:24:27.054Z,0
2017-04-22T02:25:37.391Z,0
2017-04-22T02:26:47.719Z,0
2017-04-22T02:27:57.902Z,0
2017-04-22T02:29:08.246Z,0
2017-04-22T02:30:18.089Z,0
2017-04-22T02:31:28.411Z,0
2017-04-22T02:32:38.780Z,0
2017-04-22T02:33:49.224Z,0
2017-04-22T02:34:59.565Z,0
2017-04-22T02:36:10.126Z,0
2017-04-22T02:37:20.143Z,0
2017-04-22T02:38:30.156Z,0
2017-04-22T02:39:40.545Z,0
2017-04-22T02:40:50.555Z,0
2017-04-22T02:42:00.586Z,0
2017-04-22T02:43:10.929Z,0
2017-04-22T02:44:20.945Z,0
2017-04-22T02:45:31.321Z,0
2017-04-22T02:46:41.648Z,0
2017-04-22T02:47:51.985Z,0
2017-04-22T02:49:02.315Z,0
2017-04-22T02:50:11.712Z,0
2017-04-22T02:51:21.739Z,0
2017-04-22T02:52:32.067Z,0
2017-04-22T02:53:42.399Z,0
2017-04-22T02:54:52.764Z,0
2017-04-22T02:56:03.085Z,0
2017-04-22T02:57:13.405Z,0
2017-04-22T02:58:23.764Z,0
2017-04-22T02:59:34.098Z,0
2017-04-22T03:00:44.113Z,0
2017-04-22T03:01:53.817Z,0
2017-04-22T03:32:53.641Z,4
2017-04-22T03:34:03.961Z,4
2017-04-22T03:35:14.280Z,4
2017-04-22T03:36:24.609Z,4
2017-04-22T03:37:34.475Z,8
2017-04-22T03:38:44.834Z,8
2017-04-22T03:39:55.166Z,8
2017-04-22T03:41:05.503Z,8
2017-04-22T03:42:15.834Z,12
2017-04-22T03:43:25.842Z,12
2017-04-22T03:44:36.217Z,16
2017-04-22T03:45:46.535Z,16
2017-04-22T03:46:56.865Z,20
2017-04-22T03:48:07.189Z,28
2017-04-22T03:49:17.616Z,32
2017-04-22T03:50:27.974Z,36
2017-04-22T03:51:38.304Z,44
2017-04-22T03:52:48.315Z,52
2017-04-22T03:53:58.670Z,60
2017-04-22T03:55:09.021Z,68
2017-04-22T03:56:19.360Z,80
2017-04-22T03:57:29.075Z,88
2017-04-22T03:58:39.403Z,96
2017-04-22T03:59:49.729Z,104
2017-04-22T04:00:59.748Z,120
2017-04-22T04:02:09.785Z,132
2017-04-22T04:03:20.121Z,148
2017-04-22T04:04:30.443Z,164
2017-04-22T04:05:40.905Z,172
2017-04-22T04:06:50.956Z,192
2017-04-22T04:08:01.073Z,208
2017-04-22T04:09:11.080Z,224
2017-04-22T04:10:21.420Z,244
2017-04-22T04:11:31.447Z,268
2017-04-22T04:12:41.465Z,292
2017-04-22T04:13:51.803Z,316
2017-04-22T04:15:02.138Z,336
2017-04-22T04:16:12.493Z,344
2017-04-22T04:17:22.512Z,352
2017-04-22T04:18:32.548Z,360
2017-04-22T04:19:42.256Z,372
2017-04-22T04:20:52.280Z,384
2017-04-22T04:22:02.614Z,404
2017-04-22T04:23:12.964Z,424
2017-04-22T04:24:23.307Z,440
2017-04-22T04:25:33.648Z,452
2017-04-22T04:26:43.715Z,460
2017-04-22T04:27:54.056Z,476
2017-04-22T04:29:04.083Z,496
2017-04-22T04:30:14.407Z,528
2017-04-22T04:31:24.742Z,564
2017-04-22T04:32:34.758Z,600
2017-04-22T04:33:44.775Z,632
2017-04-22T04:34:55.092Z,656
2017-04-22T04:36:05.434Z,660
2017-04-22T04:37:15.463Z,660
2017-04-22T04:38:25.469Z,660
2017-04-22T04:39:35.203Z,648
2017-04-22T04:40:44.925Z,640
2017-04-22T04:41:55.251Z,624
2017-04-22T04:43:05.627Z,620
2017-04-22T04:44:15.956Z,616
2017-04-22T04:45:25.987Z,604
2017-04-22T04:46:36.342Z,596
2017-04-22T04:47:46.055Z,580
2017-04-22T04:48:56.424Z,560
2017-04-22T04:50:06.778Z,544
2017-04-22T04:51:17.114Z,528
2017-04-22T04:52:27.468Z,516
2017-04-22T04:53:37.493Z,512
2017-04-22T04:54:47.835Z,512
2017-04-22T04:55:58.169Z,516
2017-04-22T04:57:08.517Z,520
2017-04-22T04:58:18.935Z,536
2017-04-22T04:59:29.262Z,560
2017-04-22T05:00:39.284Z,592
2017-04-22T05:01:49.306Z,628
2017-04-22T05:02:59.339Z,660
2017-04-22T05:04:09.364Z,684
2017-04-22T05:05:19.391Z,696
2017-04-22T05:06:29.725Z,700
2017-04-22T05:07:39.756Z,704
2017-04-22T05:08:50.109Z,704
2017-04-22T05:09:59.809Z,716
2017-04-22T05:11:09.525Z,724
2017-04-22T05:12:19.615Z,744
2017-04-22T05:13:29.677Z,760
2017-04-22T05:14:40.001Z,784
2017-04-22T05:15:50.626Z,804
2017-04-22T05:17:00.642Z,836
2017-04-22T05:18:10.665Z,872
2017-04-22T05:19:21.006Z,916
2017-04-22T05:20:31.338Z,968
2017-04-22T05:21:41.360Z,1004
2017-04-22T05:22:51.081Z,1028
2017-04-22T05:24:01.101Z,1064
2017-04-22T05:25:11.430Z,1104
2017-04-22T05:26:21.451Z,1144
2017-04-22T05:27:31.774Z,1164
2017-04-22T05:28:42.105Z,1172
2017-04-22T05:29:52.129Z,1200
2017-04-22T05:31:02.148Z,1248
2017-04-22T05:32:12.149Z,1312
2017-04-22T05:33:21.867Z,1380
2017-04-22T05:34:31.895Z,1480
2017-04-22T05:35:41.612Z,1604
2017-04-22T05:36:51.946Z,1716
2017-04-22T05:38:02.280Z,1820
2017-04-22T05:39:12.621Z,1860
2017-04-22T05:40:22.963Z,1912
2017-04-22T05:41:32.981Z,2000
2017-04-22T05:42:43.007Z,2036
2017-04-22T05:43:53.359Z,1984
2017-04-22T05:45:03.389Z,1852
2017-04-22T05:46:13.405Z,1652
2017-04-22T05:47:23.774Z,1476
2017-04-22T05:48:34.144Z,1360
2017-04-22T05:49:44.160Z,1260
2017-04-22T05:50:54.729Z,1208
2017-04-22T05:52:05.058Z,1212
2017-04-22T05:53:15.421Z,1256
2017-04-22T05:54:25.171Z,1296
2017-04-22T05:55:35.511Z,1336
2017-04-22T05:56:45.235Z,1388
2017-04-22T05:57:55.598Z,1408
2017-04-22T05:59:05.944Z,1388
2017-04-22T06:00:15.996Z,1428
2017-04-22T06:01:26.023Z,1532
2017-04-22T06:02:36.375Z,1676
2017-04-22T06:03:46.718Z,1844
2017-04-22T06:04:56.480Z,1944
2017-04-22T06:06:06.514Z,1932
2017-04-22T06:07:16.550Z,1804
2017-04-22T06:08:26.874Z,1684
2017-04-22T06:09:36.904Z,1620
2017-04-22T06:10:46.948Z,1556
2017-04-22T06:11:56.968Z,1440
2017-04-22T06:13:06.679Z,1356
2017-04-22T06:14:16.720Z,1336
2017-04-22T06:15:26.803Z,1344
2017-04-22T06:16:37.150Z,1412
2017-04-22T06:17:47.497Z,1508
2017-04-22T06:18:57.259Z,1540
2017-04-22T06:20:07.633Z,1580
2017-04-22T06:21:17.977Z,1664
2017-04-22T06:22:28.305Z,1724
2017-04-22T06:23:38.700Z,1720
2017-04-22T06:24:48.756Z,1708
2017-04-22T06:25:58.784Z,1676
2017-04-22T06:27:09.121Z,1624
2017-04-22T06:28:19.450Z,1564
2017-04-22T06:29:29.786Z,1488
2017-04-22T06:30:40.116Z,1372
2017-04-22T06:31:50.163Z,1252
2017-04-22T06:32:59.863Z,1160
2017-04-22T06:34:09.898Z,1108
2017-04-22T06:35:20.247Z,1092
2017-04-22T06:36:30.746Z,1108
2017-04-22T06:37:40.761Z,1164
2017-04-22T06:38:51.152Z,1228
2017-04-22T06:40:01.587Z,1264
2017-04-22T06:41:11.960Z,1320
2017-04-22T06:42:21.999Z,1380
2017-04-22T06:43:32.345Z,1404
2017-04-22T06:44:42.680Z,1368
2017-04-22T06:45:53.035Z,1280
2017-04-22T06:47:03.379Z,1220
2017-04-22T06:48:13.781Z,1220
2017-04-22T06:49:24.158Z,1244
2017-04-22T06:50:34.189Z,1212
2017-04-22T06:51:44.225Z,1116
2017-04-22T06:52:54.551Z,1028
2017-04-22T06:54:04.575Z,1028
2017-04-22T06:55:14.913Z,1084
2017-04-22T06:56:24.934Z,1144
2017-04-22T06:57:34.964Z,1136
2017-04-22T06:58:45.313Z,1096
2017-04-22T06:59:55.670Z,1084
2017-04-22T07:01:06.106Z,1112
2017-04-22T07:02:15.842Z,1164
2017-04-22T07:03:25.879Z,1204
2017-04-22T07:04:36.211Z,1304
2017-04-22T07:05:46.537Z,1424
2017-04-22T07:06:56.255Z,1540
2017-04-22T07:08:06.596Z,1632
2017-04-22T07:09:16.623Z,1644
2017-04-22T07:10:26.948Z,1652
2017-04-22T07:11:36.659Z,1696
2017-04-22T07:12:47.211Z,1740
2017-04-22T07:13:57.566Z,1828
2017-04-22T07:15:08.076Z,1980
2017-04-22T07:16:18.305Z,2140
2017-04-22T07:17:28.430Z,2252
2017-04-22T07:18:38.562Z,2352
2017-04-22T07:19:48.919Z,2472
2017-04-22T07:20:58.945Z,2560
2017-04-22T07:22:08.856Z,2560
2017-04-22T07:23:19.221Z,2468
2017-04-22T07:24:29.636Z,2372
2017-04-22T07:25:39.591Z,2224
2017-04-22T07:26:49.954Z,2064
2017-04-22T07:28:00.522Z,1988
2017-04-22T07:29:10.023Z,1976
2017-04-22T07:30:20.326Z,2044
2017-04-22T07:31:31.051Z,2128
2017-04-22T07:32:41.535Z,2176
2017-04-22T07:33:51.886Z,2212
2017-04-22T07:35:01.913Z,2280
2017-04-22T07:36:11.613Z,2488
2017-04-22T07:37:21.869Z,2796
2017-04-22T07:38:32.220Z,3148
2017-04-22T07:39:42.567Z,3380
2017-04-22T07:40:52.934Z,3420
2017-04-22T07:42:02.692Z,3548
2017-04-22T07:43:13.022Z,3760
2017-04-22T07:44:23.397Z,3976
2017-04-22T07:45:33.410Z,4112
2017-04-22T07:46:43.759Z,4168
2017-04-22T07:47:54.276Z,4224
2017-04-22T07:49:04.297Z,4344
2017-04-22T07:50:14.630Z,4452
2017-04-22T07:51:24.652Z,4544
2017-04-22T07:52:34.990Z,4764
2017-04-22T07:53:45.325Z,4992
2017-04-22T07:54:55.732Z,5092
2017-04-22T07:56:06.076Z,5004
2017-04-22T07:57:15.793Z,4828
2017-04-22T07:58:26.131Z,4748
2017-04-22T07:59:36.461Z,4816
2017-04-22T08:00:46.185Z,4876
2017-04-22T08:01:56.542Z,4944
2017-04-22T08:03:06.877Z,5028
2017-04-22T08:04:17.218Z,5156
2017-04-22T08:05:27.560Z,5336
2017-04-22T08:06:37.902Z,5536
2017-04-22T08:07:47.912Z,5744
2017-04-22T08:08:58.253Z,5916
2017-04-22T08:10:08.585Z,6032
2017-04-22T08:11:18.603Z,6160
2017-04-22T08:12:28.635Z,6364
2017-04-22T08:13:38.979Z,6676
2017-04-22T08:14:49.305Z,7056
2017-04-22T08:15:59.318Z,7440
2017-04-22T08:17:09.643Z,7768
2017-04-22T08:18:20.000Z,8060
2017-04-22T08:19:30.060Z,8244
2017-04-22T08:20:40.218Z,8592
2017-04-22T08:21:50.569Z,9224
2017-04-22T08:23:00.609Z,9728
2017-04-22T08:24:10.928Z,9892
2017-04-22T08:25:21.261Z,9780
2017-04-22T08:26:31.608Z,9876
2017-04-22T08:27:41.956Z,10136
2017-04-22T08:28:52.294Z,9856
2017-04-22T08:30:02.641Z,9180
2017-04-22T08:31:12.994Z,8680
2017-04-22T08:32:23.022Z,8428
2017-04-22T08:33:33.419Z,8360
2017-04-22T08:34:43.759Z,8316
2017-04-22T08:35:53.491Z,8252
2017-04-22T08:37:03.844Z,8240
2017-04-22T08:38:13.875Z,8360
2017-04-22T08:39:23.898Z,8492
2017-04-22T08:40:33.922Z,8584
2017-04-22T08:41:44.287Z,8672
2017-04-22T08:42:54.627Z,8652
2017-04-22T08:44:04.668Z,8676
2017-04-22T08:45:14.699Z,8752
2017-04-22T08:46:25.228Z,8976
2017-04-22T08:47:35.567Z,9220
2017-04-22T08:48:46.122Z,9336
2017-04-22T08:49:56.280Z,9416
2017-04-22T08:51:06.618Z,9340
2017-04-22T08:52:16.965Z,9480
2017-04-22T08:53:26.984Z,9744
2017-04-22T08:54:37.019Z,10208
2017-04-22T08:55:47.367Z,10676
2017-04-22T08:56:57.737Z,10928
2017-04-22T08:58:07.769Z,11684
2017-04-22T08:59:17.808Z,11608
2017-04-22T09:00:28.172Z,12128
2017-04-22T09:01:38.235Z,12056
2017-04-22T09:02:48.276Z,12144
2017-04-22T09:03:58.323Z,11868
2017-04-22T09:05:08.666Z,11412
2017-04-22T09:06:19.012Z,11492
2017-04-22T09:07:29.041Z,11292
2017-04-22T09:08:39.381Z,11352
2017-04-22T09:09:49.407Z,11512
2017-04-22T09:10:59.788Z,11588
2017-04-22T09:12:10.131Z,11816
2017-04-22T09:13:20.486Z,12136
2017-04-22T09:14:30.819Z,12164
2017-04-22T09:15:41.180Z,11640
2017-04-22T09:16:50.895Z,11316
2017-04-22T09:18:01.218Z,11256
2017-04-22T09:19:11.571Z,11124
2017-04-22T09:20:21.295Z,10996
2017-04-22T09:21:31.658Z,11052
2017-04-22T09:22:42.019Z,10972
2017-04-22T09:23:52.373Z,10900
2017-04-22T09:25:02.395Z,10880
2017-04-22T09:26:12.425Z,10744
2017-04-22T09:27:22.758Z,10532
2017-04-22T09:28:33.106Z,10596
2017-04-22T09:29:43.502Z,10448
2017-04-22T09:30:53.548Z,10320
2017-04-22T09:32:03.874Z,10292
2017-04-22T09:33:13.927Z,10440
2017-04-22T09:34:23.976Z,10500
2017-04-22T09:35:34.310Z,10636
2017-04-22T09:36:44.663Z,10440
2017-04-22T09:37:54.999Z,10592
2017-04-22T09:39:05.041Z,10660
2017-04-22T09:40:15.065Z,10840
2017-04-22T09:41:25.431Z,11012
2017-04-22T09:42:35.779Z,11512
2017-04-22T09:43:46.125Z,11372
2017-04-22T09:44:56.796Z,10804
2017-04-22T09:46:06.822Z,10016
2017-04-22T09:47:16.546Z,8564
2017-04-22T09:48:25.950Z,7608
2017-04-22T09:49:36.358Z,6540
2017-04-22T09:50:46.701Z,5772
2017-04-22T09:51:57.071Z,5388
2017-04-22T09:53:07.145Z,5128
2017-04-22T09:54:17.507Z,4672
2017-04-22T09:55:27.868Z,4200
2017-04-22T09:56:38.220Z,3960
2017-04-22T09:57:48.571Z,4004
2017-04-22T09:58:58.891Z,4160
2017-04-22T10:00:08.925Z,4420
2017-04-22T10:01:19.297Z,4680
2017-04-22T10:02:29.319Z,4736
2017-04-22T10:03:39.661Z,4628
2017-04-22T10:04:50.011Z,4452
2017-04-22T10:06:00.349Z,4308
2017-04-22T10:07:10.689Z,4220
2017-04-22T10:08:20.737Z,4140
2017-04-22T10:09:31.113Z,4104
2017-04-22T10:10:41.169Z,4092
2017-04-22T10:11:51.524Z,4088
2017-04-22T10:13:01.810Z,4252
2017-04-22T10:14:12.085Z,4424
2017-04-22T10:15:22.493Z,4480
2017-04-22T10:16:33.125Z,4500
2017-04-22T10:17:43.482Z,4640
2017-04-22T10:18:53.847Z,4792
2017-04-22T10:20:03.949Z,4828
2017-04-22T10:21:14.279Z,4768
2017-04-22T10:22:24.612Z,4752
2017-04-22T10:23:34.649Z,4856
2017-04-22T10:24:44.721Z,5044
2017-04-22T10:25:54.433Z,5320
2017-04-22T10:27:04.471Z,5688
2017-04-22T10:28:14.827Z,6008
2017-04-22T10:29:25.193Z,6264
2017-04-22T10:30:35.521Z,6516
2017-04-22T10:31:45.557Z,6644
2017-04-22T10:32:55.913Z,6704
2017-04-22T10:34:06.270Z,6920
2017-04-22T10:35:16.300Z,7320
2017-04-22T10:36:26.638Z,7516
2017-04-22T10:37:36.965Z,7648
2017-04-22T10:38:47.294Z,7852
2017-04-22T10:39:57.008Z,7944
2017-04-22T10:41:07.344Z,8068
2017-04-22T10:42:17.672Z,8248
2017-04-22T10:43:28.005Z,8440
2017-04-22T10:44:38.346Z,8644
2017-04-22T10:45:48.373Z,8800
2017-04-22T10:46:58.395Z,8764
2017-04-22T10:48:08.436Z,8892
2017-04-22T10:49:18.157Z,9140
2017-04-22T10:50:28.507Z,9416
2017-04-22T10:51:38.541Z,9880
2017-04-22T10:52:47.932Z,9920
2017-04-22T10:53:58.263Z,9996
2017-04-22T10:55:08.865Z,10076
2017-04-22T10:56:19.212Z,10068
2017-04-22T10:57:30.020Z,9952
2017-04-22T10:58:40.249Z,9852
2017-04-22T10:59:50.678Z,9516
2017-04-22T11:01:00.840Z,9516
2017-04-22T11:02:11.195Z,9692
2017-04-22T11:03:21.595Z,9784
2017-04-22T11:04:31.944Z,9636
2017-04-22T11:05:41.979Z,9532
2017-04-22T11:06:52.321Z,9552
2017-04-22T11:08:02.694Z,10096
2017-04-22T11:09:13.052Z,11080
2017-04-22T11:10:23.087Z,9740
2017-04-22T11:11:33.436Z,9108
2017-04-22T11:12:43.492Z,8440
2017-04-22T11:13:53.835Z,8112
2017-04-22T11:15:04.178Z,8300
2017-04-22T11:16:14.532Z,8512
2017-04-22T11:17:24.893Z,8536
2017-04-22T11:18:35.251Z,8660
2017-04-22T11:19:45.279Z,8712
2017-04-22T11:20:55.608Z,8192
2017-04-22T11:22:05.954Z,8020
2017-04-22T11:23:16.325Z,8204
2017-04-22T11:24:26.039Z,8108
2017-04-22T11:25:36.080Z,7404
2017-04-22T11:26:46.105Z,6624
2017-04-22T11:27:56.135Z,5680
2017-04-22T11:29:06.171Z,4948
2017-04-22T11:30:16.518Z,4480
2017-04-22T11:31:26.536Z,4348
2017-04-22T11:32:36.863Z,4360
2017-04-22T11:33:47.246Z,4600
2017-04-22T11:34:57.595Z,5468
2017-04-22T11:36:07.954Z,4948
2017-04-22T11:37:18.017Z,4596
2017-04-22T11:38:28.059Z,4504
2017-04-22T11:39:38.415Z,4580
2017-04-22T11:40:48.450Z,4848
2017-04-22T11:41:58.814Z,5196
2017-04-22T11:43:08.966Z,5552
2017-04-22T11:44:19.311Z,6008
2017-04-22T11:45:29.779Z,6360
2017-04-22T11:46:39.652Z,6380
2017-04-22T11:47:49.709Z,6416
2017-04-22T11:49:00.164Z,6544
2017-04-22T11:50:10.772Z,6696
2017-04-22T11:51:21.132Z,6592
2017-04-22T11:52:31.514Z,6052
2017-04-22T11:53:41.877Z,5536
2017-04-22T11:54:52.229Z,5392
2017-04-22T11:56:02.282Z,5360
2017-04-22T11:57:12.333Z,5284
2017-04-22T11:58:22.679Z,5244
2017-04-22T11:59:33.036Z,5496
2017-04-22T12:00:43.395Z,5780
2017-04-22T12:01:53.730Z,6048
2017-04-22T12:03:04.076Z,6048
2017-04-22T12:04:14.092Z,5920
2017-04-22T12:05:24.438Z,5836
2017-04-22T12:06:34.211Z,5756
2017-04-22T12:07:44.565Z,5512
2017-04-22T12:08:54.932Z,5240
2017-04-22T12:10:04.655Z,4888
2017-04-22T12:11:14.983Z,4608
2017-04-22T12:12:25.005Z,4596
2017-04-22T12:13:35.370Z,4628
2017-04-22T12:14:45.732Z,4668
2017-04-22T12:15:56.060Z,4608
2017-04-22T12:17:05.778Z,4644
2017-04-22T12:18:16.134Z,4676
2017-04-22T12:19:26.151Z,4636
2017-04-22T12:20:36.486Z,4632
2017-04-22T12:21:46.539Z,4656
2017-04-22T12:22:56.565Z,4700
2017-04-22T12:24:06.898Z,4748
2017-04-22T12:25:17.265Z,4756
2017-04-22T12:26:27.608Z,4872
2017-04-22T12:27:37.934Z,4956
2017-04-22T12:28:48.278Z,4932
2017-04-22T12:29:58.341Z,4836
2017-04-22T12:31:08.675Z,4816
2017-04-22T12:32:18.706Z,4980
2017-04-22T12:33:28.415Z,5424
2017-04-22T12:34:38.127Z,5672
2017-04-22T12:35:48.449Z,5788
2017-04-22T12:36:58.779Z,5752
2017-04-22T12:38:09.136Z,5612
2017-04-22T12:39:19.467Z,5592
2017-04-22T12:40:30.072Z,5816
2017-04-22T12:41:40.086Z,6100
2017-04-22T12:42:50.418Z,6412
2017-04-22T12:44:00.800Z,6928
2017-04-22T12:45:10.842Z,7508
2017-04-22T12:46:20.876Z,7888
2017-04-22T12:47:30.921Z,8152
2017-04-22T12:48:41.368Z,8228
2017-04-22T12:49:51.395Z,8188
2017-04-22T12:51:02.064Z,8200
2017-04-22T12:52:12.415Z,8332
2017-04-22T12:53:22.775Z,8472
2017-04-22T12:54:32.806Z,8528
2017-04-22T12:55:43.153Z,8728
2017-04-22T12:56:53.496Z,9004
2017-04-22T12:58:03.572Z,9192
2017-04-22T12:59:13.898Z,9328
2017-04-22T13:00:23.631Z,9428
2017-04-22T13:01:33.668Z,9412
2017-04-22T13:02:43.722Z,9424
2017-04-22T13:03:54.076Z,9444
2017-04-22T13:05:04.427Z,9412
2017-04-22T13:06:14.764Z,9276
2017-04-22T13:07:25.109Z,9152
2017-04-22T13:08:35.458Z,9284
2017-04-22T13:09:45.802Z,9628
2017-04-22T13:10:55.855Z,9976
2017-04-22T13:12:06.232Z,9868
2017-04-22T13:13:16.591Z,9700
2017-04-22T13:14:26.638Z,9340
2017-04-22T13:15:36.681Z,9616
2017-04-22T13:16:47.149Z,9496
2017-04-22T13:17:57.170Z,9344
2017-04-22T13:19:07.213Z,8964
2017-04-22T13:20:17.602Z,8684
2017-04-22T13:21:27.968Z,8632
2017-04-22T13:22:38.356Z,8780
2017-04-22T13:23:48.376Z,9228
2017-04-22T13:24:58.747Z,8900
2017-04-22T13:26:09.177Z,8328
2017-04-22T13:27:19.518Z,7808
2017-04-22T13:28:29.869Z,7560
2017-04-22T13:29:40.243Z,7284
2017-04-22T13:30:50.598Z,7152
2017-04-22T13:32:00.941Z,7008
2017-04-22T13:33:11.274Z,6920
2017-04-22T13:34:21.615Z,6852
2017-04-22T13:35:31.973Z,6712
2017-04-22T13:36:42.007Z,6424
2017-04-22T13:37:52.030Z,6368
2017-04-22T13:39:02.361Z,6416
2017-04-22T13:40:12.075Z,6412
2017-04-22T13:41:22.423Z,6384
2017-04-22T13:42:32.797Z,6416
2017-04-22T13:43:42.831Z,6424
2017-04-22T13:44:52.901Z,6432
2017-04-22T13:46:03.268Z,6448
2017-04-22T13:47:13.704Z,6500
2017-04-22T13:48:23.415Z,6592
2017-04-22T13:49:33.752Z,6708
2017-04-22T13:50:43.844Z,6816
2017-04-22T13:51:54.195Z,6936
2017-04-22T13:53:04.536Z,7116
2017-04-22T13:54:14.925Z,7336
2017-04-22T13:55:25.279Z,7408
2017-04-22T13:56:35.664Z,7480
2017-04-22T13:57:45.693Z,7472
2017-04-22T13:58:56.054Z,7528
2017-04-22T14:00:06.397Z,7668
2017-04-22T14:01:16.575Z,7812
2017-04-22T14:02:26.936Z,7744
2017-04-22T14:03:37.283Z,7408
2017-04-22T14:04:47.625Z,6988
2017-04-22T14:05:57.754Z,6636
2017-04-22T14:07:08.211Z,6220
2017-04-22T14:08:18.711Z,5864
2017-04-22T14:09:29.130Z,5696
2017-04-22T14:10:39.488Z,5464
2017-04-22T14:11:49.836Z,5224
2017-04-22T14:13:00.213Z,4904
2017-04-22T14:14:10.561Z,4668
2017-04-22T14:15:21.115Z,4564
2017-04-22T14:16:31.344Z,4480
2017-04-22T14:17:41.697Z,4232
2017-04-22T14:18:52.066Z,3828
2017-04-22T14:20:02.429Z,3376
2017-04-22T14:21:12.970Z,3004
2017-04-22T14:22:23.361Z,2728
2017-04-22T14:23:33.384Z,2572
2017-04-22T14:24:43.834Z,2468
2017-04-22T14:25:54.166Z,2396
2017-04-22T14:27:04.517Z,2348
2017-04-22T14:28:14.530Z,2288
2017-04-22T14:29:24.896Z,2192
2017-04-22T14:30:35.321Z,2088
2017-04-22T14:31:45.662Z,2004
2017-04-22T14:32:56.020Z,1932
2017-04-22T14:34:06.364Z,1876
2017-04-22T14:35:16.754Z,1816
2017-04-22T14:36:26.815Z,1824
2017-04-22T14:37:37.154Z,1920
2017-04-22T14:38:47.410Z,2032
2017-04-22T14:39:57.763Z,2088
2017-04-22T14:41:08.185Z,2044
2017-04-22T14:42:18.214Z,2004
2017-04-22T14:43:28.254Z,1980
2017-04-22T14:44:38.598Z,1984
2017-04-22T14:45:48.959Z,2076
2017-04-22T14:46:59.308Z,2188
2017-04-22T14:48:09.653Z,2316
2017-04-22T14:49:20.013Z,2364
2017-04-22T14:50:30.349Z,2356
2017-04-22T14:51:40.706Z,2372
2017-04-22T14:52:51.041Z,2328
2017-04-22T14:54:01.385Z,2068
2017-04-22T14:55:11.143Z,1760
2017-04-22T14:56:21.541Z,1560
2017-04-22T14:57:31.566Z,1492
2017-04-22T14:58:41.650Z,1468
2017-04-22T14:59:52.157Z,1520
2017-04-22T15:01:03.114Z,1632
2017-04-22T15:02:13.842Z,1720
2017-04-22T15:03:25.015Z,1692
2017-04-22T15:04:35.434Z,1516
2017-04-22T15:05:46.099Z,1308
2017-04-22T15:06:56.599Z,1140
2017-04-22T15:08:07.454Z,1024
2017-04-22T15:09:18.152Z,908
2017-04-22T15:10:28.900Z,792
2017-04-22T15:11:39.085Z,696
2017-04-22T15:12:49.595Z,636
2017-04-22T15:14:00.306Z,592
2017-04-22T15:15:12.077Z,556
2017-04-22T15:16:22.657Z,544
2017-04-22T15:17:33.115Z,520
2017-04-22T15:18:44.126Z,496
2017-04-22T15:19:54.452Z,516
2017-04-22T15:21:05.092Z,508
2017-04-22T15:22:14.864Z,448
2017-04-22T15:23:25.516Z,388
2017-04-22T15:24:36.328Z,356
2017-04-22T15:25:47.363Z,320
2017-04-22T15:26:59.368Z,288
2017-04-22T15:28:11.322Z,268
2017-04-22T15:29:22.495Z,312
2017-04-22T15:30:33.695Z,364
2017-04-22T15:31:45.359Z,344
2017-04-22T15:32:57.139Z,284
2017-04-22T15:34:08.707Z,272
2017-04-22T15:35:20.120Z,300
2017-04-22T15:36:31.242Z,312
2017-04-22T15:37:42.708Z,364
2017-04-22T15:38:53.819Z,396
2017-04-22T15:40:04.744Z,384
2017-04-22T15:41:15.466Z,336
2017-04-22T15:42:27.454Z,308
2017-04-22T15:43:37.819Z,288
2017-04-22T15:44:48.717Z,296
2017-04-22T15:45:59.534Z,280
2017-04-22T15:47:10.469Z,292
2017-04-22T15:48:21.313Z,312
2017-04-22T15:49:31.720Z,328
2017-04-22T15:50:42.085Z,296
2017-04-22T15:51:52.777Z,280
2017-04-22T15:53:03.300Z,280
2017-04-22T15:54:13.620Z,268
2017-04-22T15:55:25.056Z,256
2017-04-22T15:56:36.179Z,268
2017-04-22T15:57:46.623Z,288
2017-04-22T15:58:56.974Z,284
2017-04-22T16:00:07.984Z,272
2017-04-22T16:01:18.670Z,264
2017-04-22T16:02:29.805Z,248
2017-04-22T16:03:40.505Z,240
2017-04-22T16:04:51.124Z,224
2017-04-22T16:06:02.268Z,216
2017-04-22T16:07:13.040Z,208
2017-04-22T16:08:23.525Z,200
2017-04-22T16:09:34.422Z,200
2017-04-22T16:10:45.273Z,208
2017-04-22T16:11:56.313Z,216
2017-04-22T16:13:07.588Z,224
2017-04-22T16:14:18.902Z,268
2017-04-22T16:15:30.701Z,308
2017-04-22T16:16:40.897Z,316
2017-04-22T16:17:51.941Z,288
2017-04-22T16:19:05.213Z,284
2017-04-22T16:20:16.769Z,296
2017-04-22T16:21:27.166Z,292
2017-04-22T16:22:39.513Z,272
2017-04-22T16:23:50.540Z,236
2017-04-22T16:25:01.295Z,244
2017-04-22T16:26:12.153Z,296
2017-04-22T16:27:23.257Z,280
2017-04-22T16:28:35.036Z,256